Time;durP1;ratioP1;P1;durP2;ratioP2;P2;SDS_P1;SDS_P2;PMS_P1;PMS_P2;Temp;Humidity;BMP_temperature;BMP_pressure;BME280_temperature;BME280_humidity;BME280_pressure;Samples;Min_cycle;Max_cycle;Signal;HPM_P1;HPM_P2
2024/04/07 00:00:44;;;;;;;6.97;2.13;;;16.60;99.90;;;;;;5046111;28;20043;-70
2024/04/07 00:03:10;;;;;;;3.97;1.58;;;16.60;99.90;;;;;;5043635;28;20036;-70
2024/04/07 00:05:37;;;;;;;3.05;1.15;;;16.60;99.90;;;;;;5045203;28;20041;-70
2024/04/07 00:08:03;;;;;;;6.82;1.60;;;16.60;99.90;;;;;;5042567;28;20076;-70
2024/04/07 00:10:29;;;;;;;7.55;2.40;;;16.60;99.90;;;;;;5050838;28;20045;-72
2024/04/07 00:12:54;;;;;;;6.28;1.40;;;16.60;99.90;;;;;;5037876;28;20062;-70
2024/04/07 00:15:20;;;;;;;5.22;1.08;;;16.60;99.90;;;;;;5045533;28;20033;-71
2024/04/07 00:17:47;;;;;;;5.47;1.10;;;16.60;99.90;;;;;;5050594;28;20340;-70
2024/04/07 00:20:13;;;;;;;4.75;1.45;;;16.60;99.90;;;;;;5058104;28;20033;-71
2024/04/07 00:22:39;;;;;;;4.43;1.15;;;16.60;99.90;;;;;;5040964;28;20174;-70
2024/04/07 00:25:05;;;;;;;3.90;1.35;;;16.60;99.90;;;;;;5058012;28;20562;-70
2024/04/07 00:27:31;;;;;;;4.53;1.27;;;16.60;99.90;;;;;;5044073;28;20424;-70
2024/04/07 00:29:57;;;;;;;5.00;1.10;;;16.60;99.90;;;;;;5047860;28;20055;-71
2024/04/07 00:32:22;;;;;;;5.95;1.15;;;16.60;99.90;;;;;;5048664;28;20238;-70
2024/04/07 00:34:51;;;;;;;6.88;1.58;;;16.60;99.90;;;;;;5031751;28;20496;-71
2024/04/07 00:37:17;;;;;;;6.68;1.02;;;16.60;99.90;;;;;;5043316;28;20064;-71
2024/04/07 00:39:43;;;;;;;6.07;1.27;;;16.60;99.90;;;;;;5047856;28;20141;-71
2024/04/07 00:42:09;;;;;;;6.30;1.30;;;16.70;99.90;;;;;;5038827;28;20129;-70
2024/04/07 00:44:36;;;;;;;4.93;1.48;;;16.70;99.90;;;;;;5047132;28;20072;-70
2024/04/07 00:47:02;;;;;;;4.05;1.17;;;16.70;99.90;;;;;;5043434;28;20130;-70
2024/04/07 00:49:28;;;;;;;6.40;1.40;;;16.70;99.90;;;;;;5045399;28;20119;-70
2024/04/07 00:51:54;;;;;;;4.43;1.15;;;16.70;99.90;;;;;;5048819;28;20041;-71
2024/04/07 00:54:22;;;;;;;6.80;1.40;;;16.70;99.90;;;;;;5049116;28;20099;-70
2024/04/07 00:56:48;;;;;;;3.97;1.30;;;16.70;99.90;;;;;;5046674;28;20114;-71
2024/04/07 00:59:14;;;;;;;2.78;1.20;;;16.70;99.90;;;;;;5041704;28;20524;-70
2024/04/07 01:01:39;;;;;;;8.23;1.55;;;16.70;99.90;;;;;;5067869;28;20486;-70
2024/04/07 01:04:05;;;;;;;4.70;1.30;;;16.70;99.90;;;;;;5043804;28;20075;-70
2024/04/07 01:06:32;;;;;;;7.03;1.90;;;16.80;99.90;;;;;;5063386;28;20045;-70
2024/04/07 01:08:59;;;;;;;6.93;1.67;;;16.80;99.90;;;;;;5046277;28;20070;-70
2024/04/07 01:11:28;;;;;;;8.48;1.55;;;16.80;99.90;;;;;;5043863;28;20048;-70
2024/04/07 01:13:54;;;;;;;7.32;1.67;;;16.80;99.90;;;;;;5046546;28;20075;-70
2024/04/07 01:16:23;;;;;;;6.32;1.92;;;16.80;99.90;;;;;;5044413;28;20068;-71
2024/04/07 01:18:49;;;;;;;5.22;1.80;;;16.80;99.90;;;;;;5060525;28;20102;-70
2024/04/07 01:21:14;;;;;;;6.13;1.50;;;16.80;99.90;;;;;;5046146;28;20045;-71
2024/04/07 01:23:40;;;;;;;5.28;1.30;;;16.80;99.90;;;;;;5043533;28;20033;-71
2024/04/07 01:26:06;;;;;;;5.60;1.77;;;16.80;99.90;;;;;;5042086;28;20123;-70
2024/04/07 01:28:33;;;;;;;7.45;1.77;;;16.80;99.90;;;;;;5047061;28;20542;-70
2024/04/07 01:30:58;;;;;;;4.88;1.65;;;16.80;99.90;;;;;;5045454;28;20037;-70
2024/04/07 01:33:24;;;;;;;12.27;1.52;;;16.80;99.90;;;;;;5044703;28;20456;-70
2024/04/07 01:35:50;;;;;;;6.63;1.15;;;16.90;99.90;;;;;;5044373;28;20032;-70
2024/04/07 01:38:16;;;;;;;7.55;1.52;;;16.90;99.90;;;;;;5048492;28;20040;-71
2024/04/07 01:40:44;;;;;;;4.47;0.90;;;16.90;99.90;;;;;;5038100;28;20025;-70
2024/04/07 01:43:09;;;;;;;6.47;1.58;;;16.90;99.90;;;;;;5039049;28;20044;-70
2024/04/07 01:45:35;;;;;;;4.90;0.93;;;16.90;99.90;;;;;;5044581;28;20033;-70
2024/04/07 01:48:01;;;;;;;4.78;1.30;;;16.80;99.90;;;;;;5045156;28;20044;-70
2024/04/07 01:50:26;;;;;;;5.93;1.67;;;16.80;99.90;;;;;;5043782;28;20421;-71
2024/04/07 01:52:55;;;;;;;6.57;1.52;;;16.80;99.90;;;;;;5046368;28;20257;-70
2024/04/07 01:55:21;;;;;;;5.32;1.10;;;16.70;99.90;;;;;;5043816;28;20056;-70
2024/04/07 01:57:46;;;;;;;4.47;1.30;;;16.60;99.90;;;;;;5045180;28;20040;-70
2024/04/07 02:00:12;;;;;;;7.32;1.70;;;16.50;99.90;;;;;;5040827;28;20063;-70
2024/04/07 02:02:39;;;;;;;4.07;1.33;;;16.50;99.90;;;;;;5041405;28;20472;-70
2024/04/07 02:05:05;;;;;;;6.68;1.60;;;16.40;99.90;;;;;;5047175;28;20065;-71
2024/04/07 02:07:34;;;;;;;6.28;1.30;;;16.40;99.90;;;;;;5046188;28;20040;-70
2024/04/07 02:10:01;;;;;;;2.80;1.20;;;16.20;99.90;;;;;;5061763;28;20056;-70
2024/04/07 02:12:26;;;;;;;3.47;0.90;;;16.20;99.90;;;;;;5039113;28;20036;-70
2024/04/07 02:14:52;;;;;;;6.80;1.40;;;16.10;99.90;;;;;;5043166;28;20529;-70
2024/04/07 02:17:18;;;;;;;5.47;1.20;;;16.00;99.90;;;;;;5045764;28;20098;-70
2024/04/07 02:19:43;;;;;;;5.68;1.10;;;16.00;99.90;;;;;;5042246;28;20331;-70
2024/04/07 02:22:09;;;;;;;7.45;1.95;;;15.90;99.90;;;;;;5042879;28;20106;-69
2024/04/07 02:24:35;;;;;;;7.03;1.85;;;15.90;99.90;;;;;;5044995;28;20044;-70
2024/04/07 02:27:00;;;;;;;8.40;1.70;;;15.80;99.90;;;;;;5064089;28;20045;-69
2024/04/07 02:29:26;;;;;;;5.47;0.90;;;15.80;99.90;;;;;;5047307;28;20043;-71
2024/04/07 02:31:52;;;;;;;6.55;1.13;;;15.70;99.90;;;;;;5038228;28;20037;-71
2024/04/07 02:34:17;;;;;;;5.53;1.40;;;15.70;99.90;;;;;;5043824;28;20119;-71
2024/04/07 02:36:43;;;;;;;5.47;1.60;;;15.60;99.90;;;;;;5042570;28;20067;-70
2024/04/07 02:39:09;;;;;;;5.15;1.05;;;15.60;99.90;;;;;;5042918;28;20056;-70
2024/04/07 02:41:40;;;;;;;5.25;1.10;;;15.60;99.90;;;;;;5061935;28;20045;-70
2024/04/07 02:44:06;;;;;;;4.40;1.10;;;15.60;99.90;;;;;;5048536;28;20050;-70
2024/04/07 02:49:17;;;;;;;4.43;0.93;;;15.50;99.90;;;;;;5062288;28;20126;-70
2024/04/07 02:51:42;;;;;;;5.47;1.08;;;15.40;99.90;;;;;;5048513;28;20041;-70
2024/04/07 02:54:10;;;;;;;6.82;0.90;;;15.40;99.90;;;;;;5039456;28;20047;-70
2024/04/07 02:56:36;;;;;;;6.22;1.15;;;15.40;99.90;;;;;;5041615;28;20459;-70
2024/04/07 02:59:02;;;;;;;5.80;1.10;;;15.40;99.90;;;;;;5041578;28;20041;-71
2024/04/07 03:01:27;;;;;;;5.25;0.80;;;15.40;99.90;;;;;;5043463;28;20182;-71
2024/04/07 03:03:54;;;;;;;3.78;0.70;;;15.40;99.90;;;;;;5030665;28;20057;-71
2024/04/07 03:06:19;;;;;;;3.03;0.70;;;15.40;99.90;;;;;;5044502;28;20074;-71
2024/04/07 03:08:45;;;;;;;5.90;0.80;;;15.30;99.90;;;;;;5041758;28;20412;-71
2024/04/07 03:11:12;;;;;;;5.78;0.80;;;15.40;99.90;;;;;;5031394;28;20071;-70
2024/04/07 03:13:38;;;;;;;4.13;0.63;;;15.40;99.90;;;;;;5043108;28;20040;-70
2024/04/07 03:16:13;;;;;;;5.43;1.00;;;15.40;99.90;;;;;;5051505;28;20036;-70
2024/04/07 03:18:39;;;;;;;5.45;0.70;;;15.30;99.90;;;;;;5044025;28;20041;-70
2024/04/07 03:21:05;;;;;;;4.07;0.88;;;15.30;99.90;;;;;;5054186;28;20048;-71
2024/04/07 03:23:31;;;;;;;5.32;0.80;;;15.40;99.90;;;;;;5041411;28;20047;-70
2024/04/07 03:25:57;;;;;;;5.18;1.15;;;15.30;99.90;;;;;;5051707;28;20490;-70
2024/04/07 03:28:22;;;;;;;5.00;0.80;;;15.30;99.90;;;;;;5067014;28;20055;-70
2024/04/07 03:30:48;;;;;;;6.45;1.20;;;15.30;99.90;;;;;;5044448;28;20049;-71
2024/04/07 03:33:14;;;;;;;7.55;1.20;;;15.30;99.90;;;;;;5037034;28;20032;-71
2024/04/07 03:35:40;;;;;;;4.53;1.05;;;15.30;99.90;;;;;;5045145;28;20048;-70
2024/04/07 03:38:05;;;;;;;5.75;0.95;;;15.20;99.90;;;;;;5050163;28;20456;-71
2024/04/07 03:40:31;;;;;;;4.40;0.75;;;15.20;99.90;;;;;;5043212;28;20467;-70
2024/04/07 03:42:57;;;;;;;7.85;1.45;;;15.10;99.90;;;;;;5045877;28;20207;-71
2024/04/07 03:45:22;;;;;;;5.43;1.10;;;15.00;99.90;;;;;;5046110;28;20040;-71
2024/04/07 03:47:48;;;;;;;8.10;1.10;;;15.00;99.90;;;;;;5046849;28;20039;-71
2024/04/07 03:50:14;;;;;;;4.78;1.08;;;15.00;99.90;;;;;;5044706;28;20041;-71
2024/04/07 03:52:40;;;;;;;7.30;1.00;;;14.90;99.90;;;;;;5046134;28;20051;-71
2024/04/07 03:55:06;;;;;;;4.25;0.73;;;14.90;99.90;;;;;;5049564;28;20071;-71
2024/04/07 03:57:32;;;;;;;3.08;0.60;;;14.90;99.90;;;;;;5046312;28;20047;-71
2024/04/07 03:59:58;;;;;;;2.83;0.68;;;14.90;99.90;;;;;;5046083;28;20045;-72
2024/04/07 04:02:25;;;;;;;4.50;0.70;;;14.90;99.90;;;;;;5047803;28;20190;-71
2024/04/07 04:04:58;;;;;;;2.17;0.60;;;14.90;99.90;;;;;;5045010;28;20054;-71
2024/04/07 04:07:28;;;;;;;4.75;0.60;;;14.80;99.90;;;;;;5046656;28;20371;-72
2024/04/07 04:09:55;;;;;;;2.22;0.47;;;14.80;99.90;;;;;;5040507;28;20088;-71
2024/04/07 04:12:26;;;;;;;4.38;0.70;;;14.80;99.90;;;;;;5040023;28;20037;-71
2024/04/07 04:14:53;;;;;;;5.50;1.13;;;14.80;99.90;;;;;;5043368;28;20033;-70
2024/04/07 04:17:19;;;;;;;4.10;0.70;;;14.80;99.90;;;;;;5041176;28;20048;-70
2024/04/07 04:19:45;;;;;;;2.35;0.68;;;14.80;99.90;;;;;;5047833;28;20052;-70
2024/04/07 04:22:11;;;;;;;2.38;0.55;;;14.80;99.90;;;;;;5044913;28;20041;-70
2024/04/07 04:24:37;;;;;;;3.65;0.52;;;14.80;99.90;;;;;;5041913;28;20114;-70
2024/04/07 04:27:03;;;;;;;3.13;0.70;;;14.80;99.90;;;;;;5043158;28;20046;-69
2024/04/07 04:29:30;;;;;;;2.67;1.00;;;14.80;99.90;;;;;;5042371;28;20140;-70
2024/04/07 04:31:56;;;;;;;3.53;0.60;;;14.90;99.90;;;;;;5046370;28;20032;-70
2024/04/07 04:34:23;;;;;;;2.03;0.50;;;14.90;99.90;;;;;;5043708;28;20040;-70
2024/04/07 04:36:50;;;;;;;1.42;0.43;;;14.90;99.90;;;;;;5043123;28;20507;-71
2024/04/07 04:39:16;;;;;;;2.58;0.50;;;14.90;99.90;;;;;;5045093;28;20482;-70
2024/04/07 04:41:45;;;;;;;2.22;0.50;;;14.90;99.90;;;;;;5041296;28;20120;-70
2024/04/07 04:44:12;;;;;;;2.17;0.30;;;14.90;99.90;;;;;;5043471;28;20143;-70
2024/04/07 04:46:41;;;;;;;1.95;0.40;;;14.90;99.90;;;;;;5041837;28;20465;-71
2024/04/07 04:49:08;;;;;;;1.92;0.43;;;14.90;99.90;;;;;;5044069;28;20102;-70
2024/04/07 04:51:34;;;;;;;2.28;0.40;;;14.90;99.90;;;;;;5039120;28;20045;-71
2024/04/07 04:53:59;;;;;;;2.63;0.50;;;14.90;99.90;;;;;;5041665;28;20048;-71
2024/04/07 04:56:25;;;;;;;3.85;0.30;;;14.80;99.90;;;;;;5038440;28;20120;-71
2024/04/07 04:58:52;;;;;;;3.17;0.30;;;14.80;99.90;;;;;;5025333;28;20492;-70
2024/04/07 05:01:18;;;;;;;1.95;0.30;;;14.80;99.90;;;;;;5044672;28;20045;-70
2024/04/07 05:03:45;;;;;;;1.58;0.40;;;14.70;99.90;;;;;;5037233;28;20107;-71
2024/04/07 05:06:16;;;;;;;1.90;0.40;;;14.70;99.90;;;;;;5058281;28;20055;-70
2024/04/07 05:08:43;;;;;;;3.45;0.20;;;14.60;99.90;;;;;;5036299;28;20493;-70
2024/04/07 05:11:10;;;;;;;1.42;0.20;;;14.60;99.90;;;;;;5034405;28;20041;-70
2024/04/07 05:13:36;;;;;;;1.02;0.30;;;14.60;99.90;;;;;;5040481;28;20037;-70
2024/04/07 05:16:02;;;;;;;2.25;0.28;;;14.50;99.90;;;;;;5044388;28;20033;-70
2024/04/07 05:18:29;;;;;;;1.40;0.30;;;14.50;99.90;;;;;;5043747;28;20081;-71
2024/04/07 05:20:55;;;;;;;0.85;0.20;;;14.50;99.90;;;;;;5036065;28;20087;-70
2024/04/07 05:23:21;;;;;;;2.60;0.28;;;14.40;99.90;;;;;;5034861;28;20052;-70
2024/04/07 05:25:48;;;;;;;1.65;0.20;;;14.40;99.90;;;;;;5034718;28;20041;-70
2024/04/07 05:28:13;;;;;;;1.23;0.20;;;14.40;99.90;;;;;;5034788;28;20093;-71
2024/04/07 05:30:40;;;;;;;1.20;0.20;;;14.40;99.90;;;;;;5027501;28;20044;-70
2024/04/07 05:33:06;;;;;;;2.35;0.20;;;14.40;99.90;;;;;;5041618;28;20071;-71
2024/04/07 05:35:35;;;;;;;1.30;0.28;;;14.40;99.90;;;;;;5022600;28;20396;-71
2024/04/07 05:38:02;;;;;;;1.00;0.10;;;14.40;99.90;;;;;;5035503;28;20099;-70
2024/04/07 05:40:28;;;;;;;2.90;0.25;;;14.40;99.90;;;;;;5037997;28;20040;-70
2024/04/07 05:42:54;;;;;;;2.47;0.30;;;14.40;99.90;;;;;;5034349;28;20041;-69
2024/04/07 05:45:20;;;;;;;2.97;0.55;;;14.40;99.90;;;;;;5036293;28;20124;-70
2024/04/07 05:47:51;;;;;;;3.85;0.30;;;14.50;99.90;;;;;;5016736;28;20042;-69
2024/04/07 05:50:16;;;;;;;2.53;0.43;;;14.50;99.90;;;;;;5035250;28;20049;-71
2024/04/07 05:52:43;;;;;;;2.63;0.35;;;14.60;99.90;;;;;;5034058;28;20464;-69
2024/04/07 05:55:11;;;;;;;1.10;0.15;;;14.60;99.90;;;;;;5039185;28;20128;-70
2024/04/07 05:57:38;;;;;;;2.05;0.20;;;14.70;99.90;;;;;;5039556;28;20064;-70
2024/04/07 06:00:08;;;;;;;1.42;0.20;;;14.70;99.90;;;;;;5032342;28;20072;-70
2024/04/07 06:02:36;;;;;;;3.03;0.20;;;14.80;99.90;;;;;;5037126;28;20099;-69
2024/04/07 06:05:02;;;;;;;2.20;0.40;;;14.90;99.90;;;;;;5038207;28;20485;-70
2024/04/07 06:07:29;;;;;;;2.30;0.20;;;14.90;99.90;;;;;;5049626;28;20057;-69
2024/04/07 06:09:55;;;;;;;2.88;0.50;;;15.00;99.90;;;;;;5034432;28;20128;-70
2024/04/07 06:12:21;;;;;;;2.90;0.40;;;15.10;99.90;;;;;;5035093;28;20485;-70
2024/04/07 06:14:47;;;;;;;2.13;0.30;;;15.10;99.90;;;;;;5035912;28;20339;-69
2024/04/07 06:17:14;;;;;;;1.45;0.20;;;15.10;99.90;;;;;;5034992;28;20120;-70
2024/04/07 06:19:40;;;;;;;2.33;0.30;;;15.10;99.90;;;;;;5038454;28;20052;-70
2024/04/07 06:22:05;;;;;;;3.40;0.32;;;15.10;99.90;;;;;;5056545;28;20041;-70
2024/04/07 06:24:31;;;;;;;1.83;0.22;;;15.10;99.90;;;;;;5037069;28;20079;-69
2024/04/07 06:26:57;;;;;;;2.33;0.17;;;15.10;99.90;;;;;;5034650;28;20455;-70
2024/04/07 06:29:23;;;;;;;2.25;0.30;;;15.20;99.90;;;;;;5037151;28;20080;-70
2024/04/07 06:31:49;;;;;;;2.03;0.50;;;15.20;99.90;;;;;;5037084;28;20037;-70
2024/04/07 06:34:15;;;;;;;1.92;0.28;;;15.20;99.90;;;;;;5040924;28;20496;-71
2024/04/07 06:36:41;;;;;;;1.00;0.30;;;15.20;99.90;;;;;;5033440;28;20038;-70
2024/04/07 06:39:10;;;;;;;5.10;0.40;;;15.20;99.90;;;;;;5033556;28;20099;-69
2024/04/07 06:41:35;;;;;;;2.70;0.43;;;15.20;99.90;;;;;;5055605;28;20072;-69
2024/04/07 06:44:02;;;;;;;1.95;0.30;;;15.20;99.90;;;;;;5036097;28;20084;-69
2024/04/07 06:46:27;;;;;;;1.88;0.20;;;15.20;99.90;;;;;;5023420;28;20056;-69
2024/04/07 06:48:54;;;;;;;1.00;0.17;;;15.20;99.90;;;;;;5036841;28;20041;-69
2024/04/07 06:51:20;;;;;;;2.20;0.30;;;15.10;99.90;;;;;;5040837;28;20029;-69
2024/04/07 06:53:47;;;;;;;2.97;0.32;;;15.10;99.90;;;;;;5044510;28;20401;-69
2024/04/07 06:56:12;;;;;;;2.90;0.47;;;15.00;99.90;;;;;;5061025;28;20041;-70
2024/04/07 06:58:38;;;;;;;2.08;0.30;;;15.00;99.90;;;;;;5040914;28;20168;-70
2024/04/07 07:01:04;;;;;;;2.28;0.20;;;15.10;99.90;;;;;;5044333;28;20052;-69
2024/04/07 07:03:30;;;;;;;1.52;0.25;;;15.30;99.90;;;;;;5041366;28;20064;-70
2024/04/07 07:05:55;;;;;;;2.00;0.30;;;15.50;99.90;;;;;;5041874;28;20056;-69
2024/04/07 07:08:21;;;;;;;2.95;0.20;;;15.70;99.90;;;;;;5041596;28;20513;-70
2024/04/07 07:10:58;;;;;;;1.65;0.22;;;15.90;99.90;;;;;;5043846;28;20047;-69
2024/04/07 07:13:28;;;;;;;2.88;0.30;;;16.00;99.90;;;;;;5047861;28;20041;-69
2024/04/07 07:15:54;;;;;;;1.42;0.20;;;16.20;99.90;;;;;;5041262;28;20190;-70
2024/04/07 07:18:20;;;;;;;1.50;0.30;;;16.40;99.90;;;;;;5041801;28;20044;-70
2024/04/07 07:20:46;;;;;;;1.65;0.30;;;16.50;99.90;;;;;;5042705;28;20037;-70
2024/04/07 07:23:12;;;;;;;3.78;0.60;;;16.60;99.90;;;;;;5043424;28;20408;-71
2024/04/07 07:25:43;;;;;;;1.77;0.50;;;16.70;99.90;;;;;;5041108;28;20143;-71
2024/04/07 07:28:10;;;;;;;1.17;0.50;;;16.80;99.90;;;;;;5039156;28;20033;-70
2024/04/07 07:30:36;;;;;;;1.05;0.30;;;16.90;99.90;;;;;;5037144;28;20037;-71
2024/04/07 07:33:03;;;;;;;3.17;0.57;;;17.10;99.90;;;;;;5043422;28;20043;-71
2024/04/07 07:35:29;;;;;;;1.77;0.32;;;17.20;99.90;;;;;;5039601;28;20187;-71
2024/04/07 07:37:55;;;;;;;1.58;0.30;;;17.20;99.90;;;;;;5044486;28;20045;-70
2024/04/07 07:40:21;;;;;;;1.33;0.30;;;17.40;99.90;;;;;;5043524;28;20053;-70
2024/04/07 07:42:47;;;;;;;2.90;0.40;;;17.50;99.90;;;;;;5033421;28;20050;-71
2024/04/07 07:45:13;;;;;;;2.70;0.40;;;17.60;99.90;;;;;;5045239;28;20053;-71
2024/04/07 07:47:39;;;;;;;3.97;0.70;;;17.70;99.90;;;;;;5038649;28;20037;-69
2024/04/07 07:50:05;;;;;;;2.85;0.30;;;17.80;99.90;;;;;;5044516;28;20057;-71
2024/04/07 07:52:30;;;;;;;2.75;0.40;;;17.90;99.90;;;;;;5038249;28;20052;-71
2024/04/07 07:54:56;;;;;;;1.92;0.35;;;18.10;99.90;;;;;;5066254;28;20044;-71
2024/04/07 07:57:22;;;;;;;2.38;0.30;;;18.30;99.90;;;;;;5039776;28;20037;-71
2024/04/07 07:59:47;;;;;;;2.78;0.45;;;18.60;99.90;;;;;;5039509;28;20124;-72
2024/04/07 08:02:13;;;;;;;2.00;0.35;;;19.20;99.90;;;;;;5040674;28;20045;-71
2024/04/07 08:04:39;;;;;;;2.58;0.63;;;19.60;99.90;;;;;;5042380;28;20463;-72
2024/04/07 08:07:04;;;;;;;3.90;0.60;;;20.20;99.90;;;;;;5044507;28;20072;-71
2024/04/07 08:09:32;;;;;;;2.05;0.57;;;20.70;99.90;;;;;;5032955;28;20195;-72
2024/04/07 08:11:59;;;;;;;2.22;0.43;;;21.20;99.90;;;;;;5039190;28;20081;-72
2024/04/07 08:14:25;;;;;;;3.80;0.50;;;21.50;99.90;;;;;;5043053;28;20053;-72
2024/04/07 08:16:50;;;;;;;3.15;0.40;;;21.50;99.90;;;;;;5043324;28;20045;-72
2024/04/07 08:19:16;;;;;;;1.77;0.40;;;21.50;99.90;;;;;;5030246;28;20047;-72
2024/04/07 08:21:42;;;;;;;3.08;0.30;;;21.70;99.90;;;;;;5031981;28;20075;-71
2024/04/07 08:24:08;;;;;;;3.65;0.35;;;21.90;99.90;;;;;;5044796;28;20095;-71
2024/04/07 08:26:34;;;;;;;1.42;0.40;;;21.70;99.90;;;;;;5034352;28;20513;-71
2024/04/07 08:28:59;;;;;;;1.77;0.40;;;21.70;99.90;;;;;;5044682;28;20135;-72
2024/04/07 08:31:25;;;;;;;2.42;0.30;;;21.90;99.90;;;;;;5041670;28;20064;-72
2024/04/07 08:33:50;;;;;;;1.63;0.50;;;22.40;99.90;;;;;;5036027;28;20171;-72
2024/04/07 08:36:16;;;;;;;4.50;0.50;;;22.90;99.90;;;;;;5045118;28;20056;-72
2024/04/07 08:38:42;;;;;;;3.65;0.40;;;23.20;99.90;;;;;;5039653;28;20041;-72
2024/04/07 08:41:11;;;;;;;6.78;0.52;;;23.30;99.90;;;;;;5044978;28;20087;-71
2024/04/07 08:43:43;;;;;;;3.00;0.50;;;23.10;99.90;;;;;;5044876;28;20575;-71
2024/04/07 08:46:13;;;;;;;2.15;0.43;;;22.60;99.90;;;;;;5046392;28;20076;-72
2024/04/07 08:48:41;;;;;;;2.78;0.30;;;21.90;99.90;;;;;;5044663;28;20044;-71
2024/04/07 08:51:11;;;;;;;1.35;0.30;;;21.60;99.90;;;;;;5040354;28;20116;-71
2024/04/07 08:53:40;;;;;;;2.15;0.50;;;21.70;99.90;;;;;;5040242;28;20045;-71
2024/04/07 08:56:11;;;;;;;3.05;0.50;;;21.60;99.90;;;;;;5040402;28;20041;-71
2024/04/07 08:58:38;;;;;;;2.67;0.40;;;21.50;99.90;;;;;;5040788;28;20049;-72
2024/04/07 09:01:04;;;;;;;4.28;0.60;;;21.20;99.90;;;;;;5040084;28;20041;-71
2024/04/07 09:03:31;;;;;;;3.55;0.50;;;20.90;99.90;;;;;;5036372;28;20708;-71
2024/04/07 09:05:57;;;;;;;2.00;0.30;;;20.90;99.90;;;;;;5040466;28;20048;-70
2024/04/07 09:08:24;;;;;;;1.83;0.38;;;21.20;99.90;;;;;;5037914;28;20047;-70
2024/04/07 09:10:50;;;;;;;2.47;0.35;;;21.30;99.90;;;;;;5042927;28;20108;-72
2024/04/07 09:13:16;;;;;;;2.20;0.50;;;21.70;99.90;;;;;;5039081;28;20167;-72
2024/04/07 09:15:42;;;;;;;5.28;0.60;;;22.20;99.90;;;;;;5041606;28;20037;-72
2024/04/07 09:18:10;;;;;;;2.92;0.57;;;22.30;99.90;;;;;;5039518;28;20500;-71
2024/04/07 09:20:36;;;;;;;2.83;0.35;;;22.40;99.90;;;;;;5035697;28;20067;-72
2024/04/07 09:23:03;;;;;;;4.50;0.60;;;22.90;99.90;;;;;;5033948;28;20122;-70
2024/04/07 09:25:31;;;;;;;3.45;0.63;;;23.40;99.90;;;;;;5045226;28;20120;-71
2024/04/07 09:27:58;;;;;;;4.05;0.50;;;23.20;99.90;;;;;;5048295;28;20161;-72
2024/04/07 09:30:24;;;;;;;2.22;0.40;;;23.30;99.90;;;;;;5037120;28;20036;-70
2024/04/07 09:32:50;;;;;;;4.35;0.70;;;23.70;99.90;;;;;;5041937;28;20041;-68
2024/04/07 09:35:15;;;;;;;3.17;0.40;;;23.90;99.90;;;;;;5029825;28;20034;-70
2024/04/07 09:37:44;;;;;;;3.45;0.60;;;24.00;99.90;;;;;;5039804;28;20039;-70
2024/04/07 09:40:10;;;;;;;2.85;0.70;;;24.30;99.90;;;;;;5043768;28;20053;-70
2024/04/07 09:42:40;;;;;;;2.28;0.50;;;24.50;99.90;;;;;;5041711;28;20059;-70
2024/04/07 09:45:09;;;;;;;4.25;0.40;;;24.80;99.90;;;;;;5041144;28;20056;-71
2024/04/07 09:47:37;;;;;;;2.15;0.40;;;24.90;99.50;;;;;;5043035;28;20519;-70
2024/04/07 09:50:18;;;;;;;4.30;0.50;;;24.90;97.50;;;;;;5047056;28;20041;-69
2024/04/07 09:52:52;;;;;;;3.78;0.50;;;24.80;97.50;;;;;;5040363;28;20192;-71
2024/04/07 09:55:17;;;;;;;;;;;24.90;97.00;;;;;;5047394;28;20120;-70
2024/04/07 09:57:44;;;;;;;2.38;0.43;;;24.90;96.60;;;;;;5041444;28;20375;-70
2024/04/07 10:00:12;;;;;;;4.00;0.70;;;24.80;97.00;;;;;;5040803;28;20082;-70
2024/04/07 10:02:39;;;;;;;4.82;0.70;;;24.90;97.00;;;;;;5038806;28;20537;-69
2024/04/07 10:05:05;;;;;;;2.28;0.50;;;25.00;97.60;;;;;;5037582;28;20397;-73
2024/04/07 10:07:34;;;;;;;3.17;0.60;;;25.10;96.30;;;;;;5036189;28;20053;-70
2024/04/07 10:10:02;;;;;;;2.03;0.30;;;25.20;96.80;;;;;;5050959;28;20130;-68
2024/04/07 10:12:29;;;;;;;3.58;0.60;;;25.30;96.60;;;;;;5039507;28;20397;-68
2024/04/07 10:14:55;;;;;;;3.17;0.63;;;25.30;94.30;;;;;;5041174;28;20123;-69
2024/04/07 10:17:22;;;;;;;1.90;0.25;;;25.40;93.60;;;;;;5041347;28;20156;-69
2024/04/07 10:19:49;;;;;;;2.05;0.43;;;25.30;93.10;;;;;;5044286;28;20037;-68
2024/04/07 10:22:17;;;;;;;4.25;0.50;;;25.30;91.50;;;;;;5041618;28;20504;-71
2024/04/07 10:24:48;;;;;;;2.42;0.60;;;25.20;91.50;;;;;;5043050;28;20406;-71
2024/04/07 10:27:24;;;;;;;3.13;0.50;;;25.30;93.30;;;;;;5043407;28;20155;-67
2024/04/07 10:29:54;;;;;;;2.55;0.40;;;25.30;92.30;;;;;;5045226;28;20049;-67
2024/04/07 10:32:26;;;;;;;2.85;0.50;;;25.30;90.40;;;;;;5044208;28;20373;-68
2024/04/07 10:35:04;;;;;;;2.67;0.30;;;25.30;88.10;;;;;;5041880;28;20275;-68
2024/04/07 10:37:35;;;;;;;1.40;0.43;;;25.30;91.10;;;;;;5044449;28;20041;-70
2024/04/07 10:40:08;;;;;;;2.65;0.38;;;25.50;91.10;;;;;;5042737;28;20037;-74
2024/04/07 10:42:35;;;;;;;3.28;0.40;;;25.40;84.80;;;;;;5023393;28;20512;-70
2024/04/07 10:45:02;;;;;;;3.40;0.68;;;25.20;86.30;;;;;;5022316;28;20111;-72
2024/04/07 10:47:28;;;;;;;2.25;0.30;;;25.20;87.80;;;;;;5041621;28;20037;-72
2024/04/07 10:49:55;;;;;;;2.33;0.50;;;25.20;84.20;;;;;;5059640;28;20041;-72
2024/04/07 10:52:23;;;;;;;2.90;1.02;;;25.30;85.50;;;;;;5041753;28;20029;-71
2024/04/07 10:54:49;;;;;;;2.47;0.40;;;25.50;85.50;;;;;;5030451;28;20044;-70
2024/04/07 10:57:15;;;;;;;1.58;0.30;;;25.60;84.40;;;;;;5037696;28;20448;-71
2024/04/07 10:59:42;;;;;;;1.63;0.30;;;25.70;85.20;;;;;;5045080;28;20037;-71
2024/04/07 11:02:08;;;;;;;3.28;0.50;;;25.80;83.40;;;;;;5040207;28;20041;-72
2024/04/07 11:04:37;;;;;;;4.43;0.50;;;25.80;81.30;;;;;;5042831;28;20048;-73
2024/04/07 11:07:04;;;;;;;2.10;0.25;;;25.70;79.30;;;;;;5043616;28;20053;-73
2024/04/07 11:09:31;;;;;;;2.20;0.35;;;25.70;79.80;;;;;;5042869;28;20048;-73
2024/04/07 11:11:59;;;;;;;5.43;0.43;;;25.70;77.00;;;;;;5038581;28;20098;-72
2024/04/07 11:14:32;;;;;;;1.67;0.32;;;25.60;77.60;;;;;;5039631;28;20450;-72
2024/04/07 11:17:03;;;;;;;3.60;0.40;;;25.70;79.70;;;;;;5042844;28;20060;-71
2024/04/07 11:19:30;;;;;;;1.60;0.35;;;25.90;79.80;;;;;;5040095;28;20098;-70
2024/04/07 11:21:56;;;;;;;3.92;0.55;;;26.10;77.60;;;;;;5036951;28;20076;-70
2024/04/07 11:24:22;;;;;;;2.22;0.52;;;26.20;75.20;;;;;;5042043;28;20437;-72
2024/04/07 11:26:48;;;;;;;4.50;0.80;;;25.90;73.00;;;;;;5037717;28;20036;-70
2024/04/07 11:29:18;;;;;;;2.45;0.50;;;25.60;71.60;;;;;;5045622;28;20041;-71
2024/04/07 11:31:55;;;;;;;3.47;0.40;;;25.40;72.30;;;;;;5039222;28;20041;-70
2024/04/07 11:34:22;;;;;;;1.42;0.30;;;25.40;70.80;;;;;;5044139;28;20037;-72
2024/04/07 11:36:48;;;;;;;1.38;0.40;;;25.50;72.30;;;;;;5044887;28;20068;-72
2024/04/07 11:39:18;;;;;;;1.60;0.30;;;25.50;71.70;;;;;;5043203;28;20052;-71
2024/04/07 11:41:44;;;;;;;2.15;0.43;;;25.60;70.10;;;;;;5046041;28;20029;-70
2024/04/07 11:44:10;;;;;;;2.60;0.43;;;25.50;70.00;;;;;;5039488;28;20485;-72
2024/04/07 11:46:37;;;;;;;3.13;0.52;;;25.50;68.30;;;;;;5047122;28;20087;-71
2024/04/07 11:49:05;;;;;;;1.48;0.28;;;25.70;69.80;;;;;;5042120;28;20045;-71
2024/04/07 11:51:32;;;;;;;2.35;0.40;;;25.80;68.70;;;;;;5040156;28;20079;-70
2024/04/07 11:53:58;;;;;;;2.35;0.85;;;26.00;69.00;;;;;;5044994;28;20042;-73
2024/04/07 11:56:24;;;;;;;1.52;0.30;;;26.20;68.90;;;;;;5042445;28;20377;-74
2024/04/07 11:58:50;;;;;;;2.72;0.60;;;26.30;67.30;;;;;;5038962;28;20121;-72
2024/04/07 12:01:16;;;;;;;3.47;0.47;;;26.50;65.60;;;;;;5050432;28;20532;-72
2024/04/07 12:03:42;;;;;;;5.00;0.57;;;26.40;63.90;;;;;;5053038;28;20045;-67
2024/04/07 12:06:08;;;;;;;5.53;0.50;;;26.40;64.60;;;;;;5068231;28;20109;-69
2024/04/07 12:08:34;;;;;;;2.90;0.40;;;26.70;66.40;;;;;;5069914;28;20040;-73
2024/04/07 12:11:00;;;;;;;2.75;0.45;;;27.00;64.80;;;;;;5064462;28;20037;-73
2024/04/07 12:13:26;;;;;;;4.03;0.40;;;27.10;65.10;;;;;;5046261;28;20514;-68
2024/04/07 12:15:51;;;;;;;2.05;0.30;;;27.20;61.70;;;;;;5048866;28;20030;-71
2024/04/07 12:18:17;;;;;;;3.95;0.30;;;27.20;60.80;;;;;;5044594;28;20480;-72
2024/04/07 12:20:43;;;;;;;2.72;0.40;;;27.20;60.60;;;;;;5050459;28;20416;-72
2024/04/07 12:23:09;;;;;;;2.88;0.60;;;27.30;60.60;;;;;;5060118;28;20492;-72
2024/04/07 12:25:35;;;;;;;2.25;0.50;;;27.50;60.20;;;;;;5050593;28;20056;-71
2024/04/07 12:28:01;;;;;;;1.92;0.30;;;27.50;58.80;;;;;;5042848;28;20037;-74
2024/04/07 12:30:27;;;;;;;2.08;0.40;;;27.60;59.40;;;;;;5062348;28;20041;-72
2024/04/07 12:32:53;;;;;;;2.65;0.45;;;27.60;58.90;;;;;;5059100;28;20089;-71
2024/04/07 12:35:19;;;;;;;1.75;0.40;;;27.70;59.10;;;;;;5051401;28;20068;-71
2024/04/07 12:37:45;;;;;;;2.95;0.45;;;27.80;57.40;;;;;;5046640;28;20071;-72
2024/04/07 12:40:11;;;;;;;1.38;0.30;;;27.80;56.80;;;;;;5041310;28;20049;-73
2024/04/07 12:42:38;;;;;;;2.45;0.40;;;27.80;56.70;;;;;;5045094;28;20045;-72
2024/04/07 12:45:05;;;;;;;3.83;0.50;;;27.80;55.80;;;;;;5039917;28;20155;-72
2024/04/07 12:47:30;;;;;;;2.92;0.57;;;27.80;55.40;;;;;;5038810;28;20072;-70